sensor_id;sensor_type;location;lat;lon;timestamp;P1;durP1;ratioP1;P2;durP2;ratioP2
26502;SDS011;14177;51.520;6.764;2023-04-03T00:01:15;7.20;;;4.78;;
26502;SDS011;14177;51.520;6.764;2023-04-03T00:03:43;6.82;;;4.82;;
26502;SDS011;14177;51.520;6.764;2023-04-03T00:06:10;9.60;;;4.90;;
26502;SDS011;14177;51.520;6.764;2023-04-03T00:08:39;7.05;;;5.00;;
26502;SDS011;14177;51.520;6.764;2023-04-03T00:11:08;7.35;;;4.43;;
26502;SDS011;14177;51.520;6.764;2023-04-03T00:13:36;6.70;;;4.75;;
26502;SDS011;14177;51.520;6.764;2023-04-03T00:16:06;5.57;;;4.45;;
26502;SDS011;14177;51.520;6.764;2023-04-03T00:18:35;9.93;;;5.20;;
26502;SDS011;14177;51.520;6.764;2023-04-03T00:21:06;5.80;;;4.65;;
26502;SDS011;14177;51.520;6.764;2023-04-03T00:23:36;6.47;;;4.53;;
26502;SDS011;14177;51.520;6.764;2023-04-03T00:26:03;7.15;;;4.80;;
26502;SDS011;14177;51.520;6.764;2023-04-03T00:28:30;6.68;;;4.75;;
26502;SDS011;14177;51.520;6.764;2023-04-03T00:30:57;7.75;;;4.57;;
26502;SDS011;14177;51.520;6.764;2023-04-03T00:33:24;6.97;;;4.80;;
26502;SDS011;14177;51.520;6.764;2023-04-03T00:35:52;5.72;;;4.78;;
26502;SDS011;14177;51.520;6.764;2023-04-03T00:38:19;6.82;;;4.50;;
26502;SDS011;14177;51.520;6.764;2023-04-03T00:40:47;7.78;;;5.07;;
26502;SDS011;14177;51.520;6.764;2023-04-03T00:43:17;9.57;;;4.60;;
26502;SDS011;14177;51.520;6.764;2023-04-03T00:45:51;8.85;;;4.82;;
26502;SDS011;14177;51.520;6.764;2023-04-03T00:50:56;7.05;;;4.10;;
26502;SDS011;14177;51.520;6.764;2023-04-03T00:53:26;7.65;;;4.28;;
26502;SDS011;14177;51.520;6.764;2023-04-03T00:55:59;7.18;;;4.20;;
26502;SDS011;14177;51.520;6.764;2023-04-03T00:58:30;9.20;;;4.60;;
26502;SDS011;14177;51.520;6.764;2023-04-03T01:01:07;8.63;;;4.65;;
26502;SDS011;14177;51.520;6.764;2023-04-03T01:03:40;6.07;;;4.15;;
26502;SDS011;14177;51.520;6.764;2023-04-03T01:06:08;7.22;;;4.65;;
26502;SDS011;14177;51.520;6.764;2023-04-03T01:08:36;7.55;;;4.72;;
26502;SDS011;14177;51.520;6.764;2023-04-03T01:11:03;9.60;;;4.45;;
26502;SDS011;14177;51.520;6.764;2023-04-03T01:13:31;6.75;;;4.63;;
26502;SDS011;14177;51.520;6.764;2023-04-03T01:16:00;5.43;;;4.60;;
26502;SDS011;14177;51.520;6.764;2023-04-03T01:18:32;6.47;;;4.60;;
26502;SDS011;14177;51.520;6.764;2023-04-03T01:27:05;7.95;;;3.80;;
26502;SDS011;14177;51.520;6.764;2023-04-03T01:29:35;6.13;;;4.00;;
26502;SDS011;14177;51.520;6.764;2023-04-03T01:32:03;6.30;;;4.18;;
26502;SDS011;14177;51.520;6.764;2023-04-03T01:34:31;6.53;;;3.80;;
26502;SDS011;14177;51.520;6.764;2023-04-03T01:36:59;11.27;;;3.90;;
26502;SDS011;14177;51.520;6.764;2023-04-03T01:39:27;4.97;;;3.03;;
26502;SDS011;14177;51.520;6.764;2023-04-03T01:41:54;5.30;;;3.22;;
26502;SDS011;14177;51.520;6.764;2023-04-03T01:44:32;8.80;;;3.92;;
26502;SDS011;14177;51.520;6.764;2023-04-03T01:46:59;4.45;;;3.42;;
26502;SDS011;14177;51.520;6.764;2023-04-03T01:49:27;5.40;;;3.28;;
26502;SDS011;14177;51.520;6.764;2023-04-03T01:51:55;7.03;;;3.38;;
26502;SDS011;14177;51.520;6.764;2023-04-03T01:54:22;7.35;;;3.13;;
26502;SDS011;14177;51.520;6.764;2023-04-03T01:56:49;6.40;;;3.30;;
26502;SDS011;14177;51.520;6.764;2023-04-03T01:59:18;4.82;;;3.30;;
26502;SDS011;14177;51.520;6.764;2023-04-03T02:01:46;7.55;;;3.15;;
26502;SDS011;14177;51.520;6.764;2023-04-03T02:04:13;4.85;;;2.92;;
26502;SDS011;14177;51.520;6.764;2023-04-03T02:06:40;4.60;;;2.83;;
26502;SDS011;14177;51.520;6.764;2023-04-03T02:09:07;5.35;;;2.95;;
26502;SDS011;14177;51.520;6.764;2023-04-03T02:11:34;4.78;;;2.65;;
26502;SDS011;14177;51.520;6.764;2023-04-03T02:14:02;4.20;;;2.80;;
26502;SDS011;14177;51.520;6.764;2023-04-03T02:16:29;3.72;;;2.78;;
26502;SDS011;14177;51.520;6.764;2023-04-03T02:18:57;6.82;;;2.97;;
26502;SDS011;14177;51.520;6.764;2023-04-03T02:21:24;5.65;;;2.65;;
26502;SDS011;14177;51.520;6.764;2023-04-03T02:23:52;6.90;;;2.72;;
26502;SDS011;14177;51.520;6.764;2023-04-03T02:26:19;6.15;;;2.38;;
26502;SDS011;14177;51.520;6.764;2023-04-03T02:28:47;3.72;;;2.35;;
26502;SDS011;14177;51.520;6.764;2023-04-03T02:31:14;3.05;;;2.60;;
26502;SDS011;14177;51.520;6.764;2023-04-03T02:33:43;6.72;;;2.72;;
26502;SDS011;14177;51.520;6.764;2023-04-03T02:36:12;6.13;;;2.53;;
26502;SDS011;14177;51.520;6.764;2023-04-03T02:38:43;3.63;;;2.45;;
26502;SDS011;14177;51.520;6.764;2023-04-03T02:41:10;5.32;;;2.90;;
26502;SDS011;14177;51.520;6.764;2023-04-03T02:43:39;7.28;;;2.65;;
26502;SDS011;14177;51.520;6.764;2023-04-03T02:46:06;3.42;;;2.47;;
26502;SDS011;14177;51.520;6.764;2023-04-03T02:48:36;4.70;;;2.75;;
26502;SDS011;14177;51.520;6.764;2023-04-03T02:51:03;4.60;;;2.55;;
26502;SDS011;14177;51.520;6.764;2023-04-03T02:53:31;7.47;;;3.15;;
26502;SDS011;14177;51.520;6.764;2023-04-03T02:56:05;5.50;;;3.10;;
26502;SDS011;14177;51.520;6.764;2023-04-03T02:58:32;4.97;;;2.90;;
26502;SDS011;14177;51.520;6.764;2023-04-03T03:01:01;5.00;;;2.65;;
26502;SDS011;14177;51.520;6.764;2023-04-03T03:03:29;7.28;;;2.85;;
26502;SDS011;14177;51.520;6.764;2023-04-03T03:06:06;4.20;;;2.60;;
26502;SDS011;14177;51.520;6.764;2023-04-03T03:08:40;8.10;;;3.00;;
26502;SDS011;14177;51.520;6.764;2023-04-03T03:11:08;4.68;;;2.75;;
26502;SDS011;14177;51.520;6.764;2023-04-03T03:13:35;4.78;;;2.35;;
26502;SDS011;14177;51.520;6.764;2023-04-03T03:16:06;6.03;;;2.78;;
26502;SDS011;14177;51.520;6.764;2023-04-03T03:18:36;7.85;;;2.70;;
26502;SDS011;14177;51.520;6.764;2023-04-03T03:21:03;6.25;;;2.90;;
26502;SDS011;14177;51.520;6.764;2023-04-03T03:23:31;4.72;;;2.65;;
26502;SDS011;14177;51.520;6.764;2023-04-03T03:26:00;8.57;;;2.42;;
26502;SDS011;14177;51.520;6.764;2023-04-03T03:31:04;5.00;;;2.67;;
26502;SDS011;14177;51.520;6.764;2023-04-03T03:33:33;5.03;;;2.45;;
26502;SDS011;14177;51.520;6.764;2023-04-03T03:36:03;8.13;;;2.60;;
26502;SDS011;14177;51.520;6.764;2023-04-03T03:38:35;5.90;;;2.92;;
26502;SDS011;14177;51.520;6.764;2023-04-03T03:41:03;5.70;;;2.80;;
26502;SDS011;14177;51.520;6.764;2023-04-03T03:43:32;6.32;;;2.85;;
26502;SDS011;14177;51.520;6.764;2023-04-03T03:45:59;5.97;;;2.75;;
26502;SDS011;14177;51.520;6.764;2023-04-03T03:48:27;7.85;;;3.20;;
26502;SDS011;14177;51.520;6.764;2023-04-03T03:50:54;10.07;;;2.95;;
26502;SDS011;14177;51.520;6.764;2023-04-03T03:53:26;4.93;;;2.05;;
26502;SDS011;14177;51.520;6.764;2023-04-03T03:55:57;6.75;;;2.42;;
26502;SDS011;14177;51.520;6.764;2023-04-03T03:58:26;4.38;;;1.70;;
26502;SDS011;14177;51.520;6.764;2023-04-03T04:00:54;6.78;;;2.15;;
26502;SDS011;14177;51.520;6.764;2023-04-03T04:03:21;5.50;;;1.98;;
26502;SDS011;14177;51.520;6.764;2023-04-03T04:05:50;4.65;;;2.38;;
26502;SDS011;14177;51.520;6.764;2023-04-03T04:08:17;6.78;;;2.53;;
26502;SDS011;14177;51.520;6.764;2023-04-03T04:10:44;2.05;;;1.80;;
26502;SDS011;14177;51.520;6.764;2023-04-03T04:13:14;4.32;;;2.05;;
26502;SDS011;14177;51.520;6.764;2023-04-03T04:15:41;6.60;;;2.33;;
26502;SDS011;14177;51.520;6.764;2023-04-03T04:18:10;4.30;;;1.67;;
26502;SDS011;14177;51.520;6.764;2023-04-03T04:20:39;3.03;;;2.10;;
26502;SDS011;14177;51.520;6.764;2023-04-03T04:23:07;4.15;;;2.17;;
26502;SDS011;14177;51.520;6.764;2023-04-03T04:25:35;4.05;;;1.77;;
26502;SDS011;14177;51.520;6.764;2023-04-03T04:28:04;4.90;;;1.85;;
26502;SDS011;14177;51.520;6.764;2023-04-03T04:30:31;11.15;;;2.17;;
26502;SDS011;14177;51.520;6.764;2023-04-03T04:32:59;6.68;;;2.47;;
26502;SDS011;14177;51.520;6.764;2023-04-03T04:35:26;5.40;;;1.67;;
26502;SDS011;14177;51.520;6.764;2023-04-03T04:37:54;3.67;;;1.80;;
26502;SDS011;14177;51.520;6.764;2023-04-03T04:43:15;13.10;;;4.47;;
26502;SDS011;14177;51.520;6.764;2023-04-03T04:48:46;5.68;;;2.38;;
26502;SDS011;14177;51.520;6.764;2023-04-03T04:51:16;6.22;;;2.00;;
26502;SDS011;14177;51.520;6.764;2023-04-03T04:53:43;4.03;;;1.88;;
26502;SDS011;14177;51.520;6.764;2023-04-03T04:56:13;7.05;;;2.30;;
26502;SDS011;14177;51.520;6.764;2023-04-03T04:58:41;5.80;;;2.20;;
26502;SDS011;14177;51.520;6.764;2023-04-03T05:01:09;6.65;;;2.33;;
26502;SDS011;14177;51.520;6.764;2023-04-03T05:03:46;3.45;;;1.83;;
26502;SDS011;14177;51.520;6.764;2023-04-03T05:06:15;6.18;;;2.15;;
26502;SDS011;14177;51.520;6.764;2023-04-03T05:08:54;10.75;;;2.35;;
26502;SDS011;14177;51.520;6.764;2023-04-03T05:11:27;5.50;;;2.22;;
26502;SDS011;14177;51.520;6.764;2023-04-03T05:14:12;6.68;;;2.03;;
26502;SDS011;14177;51.520;6.764;2023-04-03T05:16:39;5.97;;;2.00;;
26502;SDS011;14177;51.520;6.764;2023-04-03T05:19:06;5.78;;;1.98;;
26502;SDS011;14177;51.520;6.764;2023-04-03T05:21:34;5.65;;;2.95;;
26502;SDS011;14177;51.520;6.764;2023-04-03T05:24:06;4.47;;;2.60;;
26502;SDS011;14177;51.520;6.764;2023-04-03T05:26:57;5.18;;;2.25;;
26502;SDS011;14177;51.520;6.764;2023-04-03T05:29:49;7.35;;;2.65;;
26502;SDS011;14177;51.520;6.764;2023-04-03T05:32:23;9.85;;;4.55;;
26502;SDS011;14177;51.520;6.764;2023-04-03T05:37:42;6.17;;;2.47;;
26502;SDS011;14177;51.520;6.764;2023-04-03T05:40:17;5.03;;;2.42;;
26502;SDS011;14177;51.520;6.764;2023-04-03T05:42:49;9.45;;;2.95;;
26502;SDS011;14177;51.520;6.764;2023-04-03T05:45:18;8.07;;;2.50;;
26502;SDS011;14177;51.520;6.764;2023-04-03T05:47:45;4.82;;;2.35;;
26502;SDS011;14177;51.520;6.764;2023-04-03T05:50:13;7.90;;;2.50;;
26502;SDS011;14177;51.520;6.764;2023-04-03T05:52:42;5.00;;;2.63;;
26502;SDS011;14177;51.520;6.764;2023-04-03T05:55:13;12.85;;;2.90;;
26502;SDS011;14177;51.520;6.764;2023-04-03T05:57:41;4.88;;;2.13;;
26502;SDS011;14177;51.520;6.764;2023-04-03T06:00:08;6.57;;;2.67;;
26502;SDS011;14177;51.520;6.764;2023-04-03T06:02:47;4.55;;;2.03;;
26502;SDS011;14177;51.520;6.764;2023-04-03T06:05:19;3.63;;;2.00;;
26502;SDS011;14177;51.520;6.764;2023-04-03T06:07:46;8.57;;;2.80;;
26502;SDS011;14177;51.520;6.764;2023-04-03T06:10:15;5.93;;;2.10;;
26502;SDS011;14177;51.520;6.764;2023-04-03T06:12:44;7.93;;;2.47;;
26502;SDS011;14177;51.520;6.764;2023-04-03T06:15:11;7.50;;;2.17;;
26502;SDS011;14177;51.520;6.764;2023-04-03T06:17:39;8.38;;;2.15;;
26502;SDS011;14177;51.520;6.764;2023-04-03T06:20:07;4.45;;;2.10;;
26502;SDS011;14177;51.520;6.764;2023-04-03T06:22:35;5.53;;;2.35;;
26502;SDS011;14177;51.520;6.764;2023-04-03T06:25:03;4.32;;;2.13;;
26502;SDS011;14177;51.520;6.764;2023-04-03T06:27:31;10.50;;;2.08;;
26502;SDS011;14177;51.520;6.764;2023-04-03T06:29:58;9.75;;;2.38;;
26502;SDS011;14177;51.520;6.764;2023-04-03T06:32:25;4.93;;;2.25;;
26502;SDS011;14177;51.520;6.764;2023-04-03T06:34:52;3.33;;;1.80;;
26502;SDS011;14177;51.520;6.764;2023-04-03T06:37:21;8.95;;;2.22;;
26502;SDS011;14177;51.520;6.764;2023-04-03T06:39:49;5.43;;;2.25;;
26502;SDS011;14177;51.520;6.764;2023-04-03T06:42:16;7.28;;;2.13;;
26502;SDS011;14177;51.520;6.764;2023-04-03T06:44:54;3.88;;;2.15;;
26502;SDS011;14177;51.520;6.764;2023-04-03T06:47:21;5.25;;;2.25;;
26502;SDS011;14177;51.520;6.764;2023-04-03T06:49:48;7.80;;;2.15;;
26502;SDS011;14177;51.520;6.764;2023-04-03T06:52:15;3.22;;;1.55;;
26502;SDS011;14177;51.520;6.764;2023-04-03T06:54:42;7.68;;;2.28;;
26502;SDS011;14177;51.520;6.764;2023-04-03T06:57:09;6.25;;;2.28;;
26502;SDS011;14177;51.520;6.764;2023-04-03T06:59:36;6.53;;;2.33;;
26502;SDS011;14177;51.520;6.764;2023-04-03T07:02:04;6.15;;;2.25;;
26502;SDS011;14177;51.520;6.764;2023-04-03T07:04:31;7.05;;;2.17;;
26502;SDS011;14177;51.520;6.764;2023-04-03T07:06:58;7.63;;;2.45;;
26502;SDS011;14177;51.520;6.764;2023-04-03T07:09:25;5.50;;;2.20;;
26502;SDS011;14177;51.520;6.764;2023-04-03T07:11:52;6.25;;;2.33;;
26502;SDS011;14177;51.520;6.764;2023-04-03T07:14:19;6.03;;;2.60;;
26502;SDS011;14177;51.520;6.764;2023-04-03T07:16:47;3.90;;;1.73;;
26502;SDS011;14177;51.520;6.764;2023-04-03T07:19:14;7.70;;;2.30;;
26502;SDS011;14177;51.520;6.764;2023-04-03T07:21:41;3.80;;;2.08;;
26502;SDS011;14177;51.520;6.764;2023-04-03T07:24:09;8.00;;;2.40;;
26502;SDS011;14177;51.520;6.764;2023-04-03T07:26:42;5.40;;;1.90;;
26502;SDS011;14177;51.520;6.764;2023-04-03T07:29:09;4.75;;;2.00;;
26502;SDS011;14177;51.520;6.764;2023-04-03T07:31:36;6.38;;;2.13;;
26502;SDS011;14177;51.520;6.764;2023-04-03T07:34:05;10.45;;;1.88;;
26502;SDS011;14177;51.520;6.764;2023-04-03T07:36:32;2.60;;;1.80;;
26502;SDS011;14177;51.520;6.764;2023-04-03T07:39:00;8.18;;;1.63;;
26502;SDS011;14177;51.520;6.764;2023-04-03T07:41:27;7.85;;;2.00;;
26502;SDS011;14177;51.520;6.764;2023-04-03T07:43:55;3.80;;;1.75;;
26502;SDS011;14177;51.520;6.764;2023-04-03T07:46:23;3.35;;;1.77;;
26502;SDS011;14177;51.520;6.764;2023-04-03T07:48:50;4.30;;;2.10;;
26502;SDS011;14177;51.520;6.764;2023-04-03T07:51:17;7.43;;;2.05;;
26502;SDS011;14177;51.520;6.764;2023-04-03T07:53:45;4.30;;;2.05;;
26502;SDS011;14177;51.520;6.764;2023-04-03T07:56:12;4.28;;;1.60;;
26502;SDS011;14177;51.520;6.764;2023-04-03T07:58:39;4.50;;;1.42;;
26502;SDS011;14177;51.520;6.764;2023-04-03T08:01:06;5.65;;;1.83;;
26502;SDS011;14177;51.520;6.764;2023-04-03T08:03:33;3.58;;;1.77;;
26502;SDS011;14177;51.520;6.764;2023-04-03T08:06:05;5.68;;;1.58;;
26502;SDS011;14177;51.520;6.764;2023-04-03T08:08:46;3.75;;;1.58;;
26502;SDS011;14177;51.520;6.764;2023-04-03T08:11:15;4.25;;;1.88;;
26502;SDS011;14177;51.520;6.764;2023-04-03T08:13:42;7.90;;;1.58;;
26502;SDS011;14177;51.520;6.764;2023-04-03T08:16:17;2.75;;;1.63;;
26502;SDS011;14177;51.520;6.764;2023-04-03T08:18:48;5.28;;;1.60;;
26502;SDS011;14177;51.520;6.764;2023-04-03T08:21:15;5.15;;;1.48;;
26502;SDS011;14177;51.520;6.764;2023-04-03T08:23:43;5.03;;;1.48;;
26502;SDS011;14177;51.520;6.764;2023-04-03T08:26:11;3.17;;;1.38;;
26502;SDS011;14177;51.520;6.764;2023-04-03T08:28:41;1.70;;;1.17;;
26502;SDS011;14177;51.520;6.764;2023-04-03T08:31:10;2.63;;;1.40;;
26502;SDS011;14177;51.520;6.764;2023-04-03T08:33:46;5.03;;;1.50;;
26502;SDS011;14177;51.520;6.764;2023-04-03T08:36:16;5.13;;;1.60;;
26502;SDS011;14177;51.520;6.764;2023-04-03T08:38:55;2.45;;;1.38;;
26502;SDS011;14177;51.520;6.764;2023-04-03T08:41:33;4.82;;;1.20;;
26502;SDS011;14177;51.520;6.764;2023-04-03T08:50:16;4.70;;;1.40;;
26502;SDS011;14177;51.520;6.764;2023-04-03T08:54:01;2.70;;;1.17;;
26502;SDS011;14177;51.520;6.764;2023-04-03T08:57:01;5.18;;;1.65;;
26502;SDS011;14177;51.520;6.764;2023-04-03T08:59:34;3.42;;;1.40;;
26502;SDS011;14177;51.520;6.764;2023-04-03T09:02:13;2.42;;;1.00;;
26502;SDS011;14177;51.520;6.764;2023-04-03T09:04:56;2.63;;;1.10;;
26502;SDS011;14177;51.520;6.764;2023-04-03T09:07:35;1.63;;;1.00;;
26502;SDS011;14177;51.520;6.764;2023-04-03T09:10:40;2.78;;;1.30;;
26502;SDS011;14177;51.520;6.764;2023-04-03T09:15:44;1.80;;;0.90;;
26502;SDS011;14177;51.520;6.764;2023-04-03T09:18:23;2.55;;;0.95;;
26502;SDS011;14177;51.520;6.764;2023-04-03T09:23:46;2.97;;;0.95;;
26502;SDS011;14177;51.520;6.764;2023-04-03T09:26:18;1.20;;;0.90;;
26502;SDS011;14177;51.520;6.764;2023-04-03T09:29:18;2.17;;;1.00;;
26502;SDS011;14177;51.520;6.764;2023-04-03T09:32:01;3.25;;;1.13;;
26502;SDS011;14177;51.520;6.764;2023-04-03T09:34:45;2.20;;;0.93;;
26502;SDS011;14177;51.520;6.764;2023-04-03T09:37:33;2.03;;;0.98;;
26502;SDS011;14177;51.520;6.764;2023-04-03T09:40:05;3.85;;;1.33;;
26502;SDS011;14177;51.520;6.764;2023-04-03T09:49:03;3.83;;;1.13;;
26502;SDS011;14177;51.520;6.764;2023-04-03T09:51:35;4.28;;;1.60;;
26502;SDS011;14177;51.520;6.764;2023-04-03T09:57:08;2.35;;;1.10;;
26502;SDS011;14177;51.520;6.764;2023-04-03T10:05:00;2.60;;;1.08;;
26502;SDS011;14177;51.520;6.764;2023-04-03T10:13:50;1.40;;;0.82;;
26502;SDS011;14177;51.520;6.764;2023-04-03T10:19:32;1.90;;;0.60;;
26502;SDS011;14177;51.520;6.764;2023-04-03T10:22:18;1.15;;;0.70;;
26502;SDS011;14177;51.520;6.764;2023-04-03T10:28:04;2.20;;;0.90;;
26502;SDS011;14177;51.520;6.764;2023-04-03T10:30:54;3.78;;;0.80;;
26502;SDS011;14177;51.520;6.764;2023-04-03T10:33:47;1.88;;;0.65;;
26502;SDS011;14177;51.520;6.764;2023-04-03T10:36:38;2.35;;;0.80;;
26502;SDS011;14177;51.520;6.764;2023-04-03T10:40:02;2.00;;;0.60;;
26502;SDS011;14177;51.520;6.764;2023-04-03T10:42:50;2.35;;;1.05;;
26502;SDS011;14177;51.520;6.764;2023-04-03T10:46:04;0.65;;;0.55;;
26502;SDS011;14177;51.520;6.764;2023-04-03T10:51:52;2.83;;;0.70;;
26502;SDS011;14177;51.520;6.764;2023-04-03T10:57:33;2.30;;;0.80;;
26502;SDS011;14177;51.520;6.764;2023-04-03T11:00:04;2.78;;;0.93;;
26502;SDS011;14177;51.520;6.764;2023-04-03T11:02:42;3.42;;;0.80;;
26502;SDS011;14177;51.520;6.764;2023-04-03T11:05:25;3.40;;;0.88;;
26502;SDS011;14177;51.520;6.764;2023-04-03T11:08:17;2.47;;;1.02;;
26502;SDS011;14177;51.520;6.764;2023-04-03T11:11:08;2.42;;;0.75;;
26502;SDS011;14177;51.520;6.764;2023-04-03T11:13:43;1.65;;;0.70;;
26502;SDS011;14177;51.520;6.764;2023-04-03T11:16:24;3.03;;;0.93;;
26502;SDS011;14177;51.520;6.764;2023-04-03T11:18:59;3.35;;;1.17;;
26502;SDS011;14177;51.520;6.764;2023-04-03T11:25:25;3.30;;;0.98;;
26502;SDS011;14177;51.520;6.764;2023-04-03T11:28:01;2.88;;;1.08;;
26502;SDS011;14177;51.520;6.764;2023-04-03T11:36:33;2.50;;;0.82;;
26502;SDS011;14177;51.520;6.764;2023-04-03T11:39:22;1.85;;;0.80;;
26502;SDS011;14177;51.520;6.764;2023-04-03T11:41:54;2.05;;;0.88;;
26502;SDS011;14177;51.520;6.764;2023-04-03T11:44:39;3.78;;;1.23;;
26502;SDS011;14177;51.520;6.764;2023-04-03T11:47:10;5.10;;;0.70;;
26502;SDS011;14177;51.520;6.764;2023-04-03T11:50:03;1.60;;;0.73;;
26502;SDS011;14177;51.520;6.764;2023-04-03T12:29:32;2.78;;;1.10;;
26502;SDS011;14177;51.520;6.764;2023-04-03T12:35:35;6.05;;;1.02;;
26502;SDS011;14177;51.520;6.764;2023-04-03T12:42:02;1.67;;;0.80;;
26502;SDS011;14177;51.520;6.764;2023-04-03T12:47:57;3.88;;;0.80;;
26502;SDS011;14177;51.520;6.764;2023-04-03T12:50:31;2.65;;;0.98;;
26502;SDS011;14177;51.520;6.764;2023-04-03T12:53:02;2.80;;;0.82;;
26502;SDS011;14177;51.520;6.764;2023-04-03T12:55:41;2.63;;;0.90;;
26502;SDS011;14177;51.520;6.764;2023-04-03T13:00:55;3.40;;;1.13;;
26502;SDS011;14177;51.520;6.764;2023-04-03T13:03:42;1.70;;;0.85;;
26502;SDS011;14177;51.520;6.764;2023-04-03T13:06:18;2.83;;;1.42;;
26502;SDS011;14177;51.520;6.764;2023-04-03T13:09:00;4.47;;;0.85;;
26502;SDS011;14177;51.520;6.764;2023-04-03T13:11:30;85.32;;;13.13;;
26502;SDS011;14177;51.520;6.764;2023-04-03T13:14:05;1.80;;;0.90;;
26502;SDS011;14177;51.520;6.764;2023-04-03T13:16:52;2.58;;;1.00;;
26502;SDS011;14177;51.520;6.764;2023-04-03T13:19:30;1.85;;;0.80;;
26502;SDS011;14177;51.520;6.764;2023-04-03T13:21:59;2.95;;;1.10;;
26502;SDS011;14177;51.520;6.764;2023-04-03T13:24:33;3.15;;;1.27;;
26502;SDS011;14177;51.520;6.764;2023-04-03T13:27:04;4.35;;;1.02;;
26502;SDS011;14177;51.520;6.764;2023-04-03T13:29:33;5.30;;;1.13;;
26502;SDS011;14177;51.520;6.764;2023-04-03T13:32:03;3.97;;;0.90;;
26502;SDS011;14177;51.520;6.764;2023-04-03T13:34:37;4.13;;;1.00;;
26502;SDS011;14177;51.520;6.764;2023-04-03T13:37:21;2.90;;;1.20;;
26502;SDS011;14177;51.520;6.764;2023-04-03T13:42:34;5.10;;;1.08;;
26502;SDS011;14177;51.520;6.764;2023-04-03T13:51:21;3.50;;;1.00;;
26502;SDS011;14177;51.520;6.764;2023-04-03T13:54:00;2.45;;;0.82;;
26502;SDS011;14177;51.520;6.764;2023-04-03T13:56:39;5.55;;;0.98;;
26502;SDS011;14177;51.520;6.764;2023-04-03T14:01:40;2.92;;;0.90;;
26502;SDS011;14177;51.520;6.764;2023-04-03T14:04:21;2.10;;;0.95;;
26502;SDS011;14177;51.520;6.764;2023-04-03T14:06:54;4.03;;;0.73;;
26502;SDS011;14177;51.520;6.764;2023-04-03T14:09:22;3.67;;;0.98;;
26502;SDS011;14177;51.520;6.764;2023-04-03T14:11:57;3.75;;;0.70;;
26502;SDS011;14177;51.520;6.764;2023-04-03T14:14:32;3.92;;;1.17;;
26502;SDS011;14177;51.520;6.764;2023-04-03T14:17:03;2.30;;;1.05;;
26502;SDS011;14177;51.520;6.764;2023-04-03T14:19:51;3.15;;;0.90;;
26502;SDS011;14177;51.520;6.764;2023-04-03T14:22:31;3.15;;;0.90;;
26502;SDS011;14177;51.520;6.764;2023-04-03T14:25:01;4.60;;;1.60;;
26502;SDS011;14177;51.520;6.764;2023-04-03T14:27:39;6.18;;;1.88;;
26502;SDS011;14177;51.520;6.764;2023-04-03T14:30:20;5.63;;;2.65;;
26502;SDS011;14177;51.520;6.764;2023-04-03T14:32:52;3.28;;;1.30;;
26502;SDS011;14177;51.520;6.764;2023-04-03T14:35:26;1.80;;;0.85;;
26502;SDS011;14177;51.520;6.764;2023-04-03T14:37:54;4.70;;;1.13;;
26502;SDS011;14177;51.520;6.764;2023-04-03T14:40:23;5.05;;;1.20;;
26502;SDS011;14177;51.520;6.764;2023-04-03T14:42:53;7.78;;;3.53;;
26502;SDS011;14177;51.520;6.764;2023-04-03T14:45:21;10.82;;;1.77;;
26502;SDS011;14177;51.520;6.764;2023-04-03T14:47:51;2.95;;;0.90;;
26502;SDS011;14177;51.520;6.764;2023-04-03T14:50:24;2.30;;;0.93;;
26502;SDS011;14177;51.520;6.764;2023-04-03T14:52:54;4.07;;;1.05;;
26502;SDS011;14177;51.520;6.764;2023-04-03T14:55:25;3.58;;;1.10;;
26502;SDS011;14177;51.520;6.764;2023-04-03T14:57:53;3.35;;;1.00;;
26502;SDS011;14177;51.520;6.764;2023-04-03T15:00:21;2.22;;;0.90;;
26502;SDS011;14177;51.520;6.764;2023-04-03T15:02:49;3.17;;;1.15;;
26502;SDS011;14177;51.520;6.764;2023-04-03T15:05:17;3.15;;;1.10;;
26502;SDS011;14177;51.520;6.764;2023-04-03T15:07:50;2.80;;;1.20;;
26502;SDS011;14177;51.520;6.764;2023-04-03T15:12:51;5.20;;;1.13;;
26502;SDS011;14177;51.520;6.764;2023-04-03T15:15:19;3.42;;;1.00;;
26502;SDS011;14177;51.520;6.764;2023-04-03T15:17:52;3.28;;;0.98;;
26502;SDS011;14177;51.520;6.764;2023-04-03T15:20:24;4.20;;;1.25;;
26502;SDS011;14177;51.520;6.764;2023-04-03T15:22:56;2.30;;;0.95;;
26502;SDS011;14177;51.520;6.764;2023-04-03T15:25:30;3.22;;;0.82;;
26502;SDS011;14177;51.520;6.764;2023-04-03T15:27:59;3.88;;;1.10;;
26502;SDS011;14177;51.520;6.764;2023-04-03T15:30:26;6.65;;;1.20;;
26502;SDS011;14177;51.520;6.764;2023-04-03T15:32:53;2.55;;;1.08;;
26502;SDS011;14177;51.520;6.764;2023-04-03T15:35:21;3.92;;;1.15;;
26502;SDS011;14177;51.520;6.764;2023-04-03T15:37:48;3.95;;;1.20;;
26502;SDS011;14177;51.520;6.764;2023-04-03T15:40:15;4.25;;;0.98;;
26502;SDS011;14177;51.520;6.764;2023-04-03T15:42:42;4.38;;;1.27;;
26502;SDS011;14177;51.520;6.764;2023-04-03T15:45:09;2.78;;;1.20;;
26502;SDS011;14177;51.520;6.764;2023-04-03T15:47:37;3.65;;;1.30;;
26502;SDS011;14177;51.520;6.764;2023-04-03T15:50:05;4.15;;;1.30;;
26502;SDS011;14177;51.520;6.764;2023-04-03T15:52:34;1.98;;;0.95;;
26502;SDS011;14177;51.520;6.764;2023-04-03T15:55:02;3.15;;;0.93;;
26502;SDS011;14177;51.520;6.764;2023-04-03T15:57:30;3.95;;;1.33;;
26502;SDS011;14177;51.520;6.764;2023-04-03T15:59:57;3.65;;;0.95;;
26502;SDS011;14177;51.520;6.764;2023-04-03T16:02:25;3.45;;;1.08;;
26502;SDS011;14177;51.520;6.764;2023-04-03T16:04:54;1.95;;;1.00;;
26502;SDS011;14177;51.520;6.764;2023-04-03T16:07:22;4.55;;;1.30;;
26502;SDS011;14177;51.520;6.764;2023-04-03T16:09:49;2.92;;;1.02;;
26502;SDS011;14177;51.520;6.764;2023-04-03T16:12:16;6.22;;;1.30;;
26502;SDS011;14177;51.520;6.764;2023-04-03T16:14:43;2.17;;;1.25;;
26502;SDS011;14177;51.520;6.764;2023-04-03T16:17:10;3.05;;;1.20;;
26502;SDS011;14177;51.520;6.764;2023-04-03T16:19:37;2.30;;;1.10;;
26502;SDS011;14177;51.520;6.764;2023-04-03T16:22:04;2.42;;;1.30;;
26502;SDS011;14177;51.520;6.764;2023-04-03T16:24:39;4.80;;;1.30;;
26502;SDS011;14177;51.520;6.764;2023-04-03T16:27:43;3.88;;;1.30;;
26502;SDS011;14177;51.520;6.764;2023-04-03T16:30:10;5.45;;;1.45;;
26502;SDS011;14177;51.520;6.764;2023-04-03T16:32:38;4.00;;;1.27;;
26502;SDS011;14177;51.520;6.764;2023-04-03T16:35:07;4.47;;;1.38;;
26502;SDS011;14177;51.520;6.764;2023-04-03T16:37:39;4.82;;;1.10;;
26502;SDS011;14177;51.520;6.764;2023-04-03T16:40:06;6.95;;;1.23;;
26502;SDS011;14177;51.520;6.764;2023-04-03T16:42:35;3.25;;;1.60;;
26502;SDS011;14177;51.520;6.764;2023-04-03T16:45:04;3.13;;;1.10;;
26502;SDS011;14177;51.520;6.764;2023-04-03T16:47:33;2.63;;;1.10;;
26502;SDS011;14177;51.520;6.764;2023-04-03T16:50:01;5.93;;;1.55;;
26502;SDS011;14177;51.520;6.764;2023-04-03T16:52:28;2.75;;;1.30;;
26502;SDS011;14177;51.520;6.764;2023-04-03T16:54:56;3.38;;;1.30;;
26502;SDS011;14177;51.520;6.764;2023-04-03T16:57:25;4.82;;;1.50;;
26502;SDS011;14177;51.520;6.764;2023-04-03T16:59:53;3.28;;;1.20;;
26502;SDS011;14177;51.520;6.764;2023-04-03T17:02:21;2.22;;;1.08;;
26502;SDS011;14177;51.520;6.764;2023-04-03T17:04:52;6.85;;;1.60;;
26502;SDS011;14177;51.520;6.764;2023-04-03T17:07:20;4.20;;;1.10;;
26502;SDS011;14177;51.520;6.764;2023-04-03T17:09:49;3.13;;;2.05;;
26502;SDS011;14177;51.520;6.764;2023-04-03T17:12:16;3.38;;;0.98;;
26502;SDS011;14177;51.520;6.764;2023-04-03T17:14:43;4.13;;;1.38;;
26502;SDS011;14177;51.520;6.764;2023-04-03T17:17:17;4.30;;;1.25;;
26502;SDS011;14177;51.520;6.764;2023-04-03T17:19:50;5.22;;;1.63;;
26502;SDS011;14177;51.520;6.764;2023-04-03T17:22:20;2.17;;;1.02;;
26502;SDS011;14177;51.520;6.764;2023-04-03T17:24:50;2.25;;;1.20;;
26502;SDS011;14177;51.520;6.764;2023-04-03T17:27:17;3.20;;;1.35;;
26502;SDS011;14177;51.520;6.764;2023-04-03T17:29:45;3.53;;;1.00;;
26502;SDS011;14177;51.520;6.764;2023-04-03T17:32:12;3.42;;;1.00;;
26502;SDS011;14177;51.520;6.764;2023-04-03T17:34:40;2.97;;;1.35;;